createdAt,value
2018-10-05T00:03:53.991Z,21.83
2018-10-05T00:08:57.251Z,21.82
2018-10-05T00:14:00.512Z,21.82
2018-10-05T00:19:03.780Z,21.82
2018-10-05T00:24:07.229Z,21.82
2018-10-05T00:29:10.496Z,21.82
2018-10-05T00:34:13.764Z,21.80
2018-10-05T00:39:17.047Z,21.82
2018-10-05T00:44:20.319Z,21.81
2018-10-05T00:49:23.597Z,21.81
2018-10-05T00:54:26.862Z,21.79
2018-10-05T00:59:30.139Z,21.77
2018-10-05T01:04:33.417Z,21.83
2018-10-05T01:09:36.681Z,21.78
2018-10-05T01:14:39.944Z,21.82
2018-10-05T01:19:43.840Z,21.80
2018-10-05T01:24:47.295Z,21.77
2018-10-05T01:29:50.536Z,21.74
2018-10-05T01:34:53.807Z,21.73
2018-10-05T01:39:57.081Z,21.73
2018-10-05T01:45:00.492Z,21.74
2018-10-05T01:50:04.280Z,21.74
2018-10-05T01:55:07.536Z,21.74
2018-10-05T02:00:10.949Z,21.75
2018-10-05T02:05:14.212Z,21.75
2018-10-05T02:10:17.499Z,21.75
2018-10-05T02:15:20.873Z,21.75
2018-10-05T02:20:24.128Z,21.72
2018-10-05T02:25:27.445Z,21.73
2018-10-05T02:30:30.716Z,21.74
2018-10-05T02:35:33.986Z,21.77
2018-10-05T02:40:37.258Z,21.72
2018-10-05T02:45:40.523Z,21.72
2018-10-05T02:50:43.783Z,21.69
2018-10-05T02:55:47.040Z,21.70
2018-10-05T03:01:01.712Z,21.71
2018-10-05T03:06:04.996Z,21.72
2018-10-05T03:11:08.278Z,21.68
2018-10-05T03:16:11.601Z,21.73
2018-10-05T03:21:14.885Z,21.68
2018-10-05T03:26:18.240Z,21.68
2018-10-05T03:31:21.540Z,21.68
2018-10-05T03:36:24.823Z,21.66
2018-10-05T03:41:28.176Z,21.64
2018-10-05T03:46:32.152Z,21.69
2018-10-05T03:51:35.461Z,21.71
2018-10-05T03:56:38.752Z,21.68
2018-10-05T04:01:42.057Z,21.69
2018-10-05T04:06:45.344Z,21.65
2018-10-05T04:11:48.636Z,21.65
2018-10-05T04:16:51.930Z,21.66
2018-10-05T04:21:55.224Z,21.63
2018-10-05T04:26:58.513Z,21.65
2018-10-05T04:32:01.815Z,21.59
2018-10-05T04:37:05.112Z,21.58
2018-10-05T04:42:08.501Z,21.62
2018-10-05T04:47:11.802Z,21.59
2018-10-05T04:52:15.120Z,21.58
2018-10-05T04:57:18.416Z,21.56
2018-10-05T05:02:21.785Z,21.55
2018-10-05T05:07:25.179Z,21.55
2018-10-05T05:12:28.465Z,21.59
2018-10-05T05:17:31.784Z,21.53
2018-10-05T05:22:35.073Z,21.51
2018-10-05T05:27:38.356Z,21.58
2018-10-05T05:32:41.642Z,21.51
2018-10-05T05:37:44.940Z,21.51
2018-10-05T05:42:48.244Z,21.48
2018-10-05T05:47:51.528Z,21.53
2018-10-05T05:52:54.825Z,21.48
2018-10-05T05:57:58.104Z,21.50
2018-10-05T06:03:01.416Z,21.51
2018-10-05T06:08:04.763Z,21.47
2018-10-05T06:13:08.056Z,21.50
2018-10-05T06:18:11.424Z,21.48
2018-10-05T06:23:14.744Z,21.48
2018-10-05T06:28:18.031Z,21.47
2018-10-05T06:33:21.389Z,21.51
2018-10-05T06:38:24.646Z,21.50
2018-10-05T06:43:27.996Z,21.53
2018-10-05T06:48:32.045Z,21.51
2018-10-05T06:53:35.421Z,21.51
2018-10-05T06:58:39.105Z,21.58
2018-10-05T07:03:43.618Z,21.63
2018-10-05T07:08:46.919Z,21.70
2018-10-05T07:13:50.210Z,21.80
2018-10-05T07:18:53.509Z,21.82
2018-10-05T07:23:56.809Z,21.86
2018-10-05T07:29:00.108Z,20.88
2018-10-05T07:34:03.397Z,20.73
2018-10-05T07:39:08.235Z,20.65
2018-10-05T07:44:11.520Z,20.63
2018-10-05T07:49:14.799Z,20.65
2018-10-05T07:54:18.115Z,20.69
2018-10-05T07:59:21.409Z,20.79
2018-10-05T08:04:24.703Z,20.98
2018-10-05T08:09:28.005Z,21.12
2018-10-05T08:14:31.910Z,21.07
2018-10-05T08:19:35.243Z,21.44
2018-10-05T08:24:38.593Z,21.52
2018-10-05T08:29:41.900Z,21.56
2018-10-05T08:34:45.230Z,21.59
2018-10-05T08:39:48.576Z,21.62
2018-10-05T08:44:51.799Z,21.65
2018-10-05T08:49:55.073Z,21.61
2018-10-05T08:54:58.340Z,21.52
2018-10-05T09:00:01.641Z,21.56
2018-10-05T09:05:05.748Z,21.64
2018-10-05T09:10:09.088Z,21.68
2018-10-05T09:15:12.379Z,21.71
2018-10-05T09:20:15.648Z,21.73
2018-10-05T09:25:18.912Z,21.72
2018-10-05T09:30:22.248Z,21.72
2018-10-05T09:35:25.528Z,21.73
2018-10-05T09:40:28.792Z,21.65
2018-10-05T09:45:32.212Z,21.68
2018-10-05T09:50:35.505Z,21.77
2018-10-05T09:55:38.840Z,21.77
2018-10-05T10:01:48.093Z,21.73
2018-10-05T10:06:51.865Z,21.79
2018-10-05T10:11:55.333Z,21.79
2018-10-05T10:16:58.588Z,21.79
2018-10-05T10:22:01.853Z,21.78
2018-10-05T10:27:05.262Z,21.82
2018-10-05T10:32:08.536Z,21.81
2018-10-05T10:37:11.812Z,21.79
2018-10-05T10:42:15.164Z,21.81
2018-10-05T10:47:18.435Z,21.76
2018-10-05T10:52:21.705Z,21.71
2018-10-05T10:57:24.995Z,21.71
2018-10-05T11:02:28.275Z,21.78
2018-10-05T11:07:31.547Z,21.78
2018-10-05T11:12:34.838Z,21.84
2018-10-05T11:17:38.104Z,21.93
2018-10-05T11:22:41.377Z,21.86
2018-10-05T11:27:44.640Z,21.88
2018-10-05T11:32:47.963Z,21.95
2018-10-05T11:37:51.345Z,21.86
2018-10-05T11:42:54.929Z,21.83
2018-10-05T11:47:58.372Z,21.82
2018-10-05T11:53:01.658Z,21.86
2018-10-05T11:58:04.919Z,21.89
2018-10-05T12:03:08.377Z,21.88
2018-10-05T12:08:11.912Z,21.95
2018-10-05T12:13:15.305Z,21.93
2018-10-05T12:18:18.656Z,21.94
2018-10-05T12:23:22.005Z,21.99
2018-10-05T12:28:25.290Z,22.04
2018-10-05T12:33:28.602Z,22.02
2018-10-05T12:38:32.016Z,21.99
2018-10-05T12:43:35.403Z,22.01
2018-10-05T12:48:38.721Z,22.07
2018-10-05T12:53:42.036Z,22.07
2018-10-05T12:58:45.686Z,22.09
2018-10-05T13:03:48.980Z,22.13
2018-10-05T13:08:52.251Z,22.10
2018-10-05T13:13:55.526Z,22.22
2018-10-05T13:18:58.804Z,22.24
2018-10-05T13:24:02.767Z,22.25
2018-10-05T13:29:06.125Z,22.23
2018-10-05T13:34:09.462Z,22.26
2018-10-05T13:39:12.940Z,22.25
2018-10-05T13:44:16.285Z,22.23
2018-10-05T13:49:19.581Z,22.35
2018-10-05T13:54:22.852Z,22.37
2018-10-05T13:59:26.117Z,22.31
2018-10-05T14:04:29.379Z,22.32
2018-10-05T14:09:32.631Z,22.33
2018-10-05T14:14:35.896Z,22.30
2018-10-05T14:19:39.159Z,22.31
2018-10-05T14:24:42.426Z,22.32
2018-10-05T14:29:45.684Z,22.28
2018-10-05T14:34:48.947Z,22.31
2018-10-05T14:39:52.195Z,22.34
2018-10-05T14:44:55.456Z,22.32
2018-10-05T14:49:58.739Z,22.31
2018-10-05T14:55:02.001Z,22.32
2018-10-05T15:00:06.032Z,22.31
2018-10-05T15:05:09.349Z,22.27
2018-10-05T15:10:12.608Z,22.30
2018-10-05T15:15:15.876Z,22.30
2018-10-05T15:20:19.127Z,22.29
2018-10-05T15:25:22.387Z,22.27
2018-10-05T15:30:25.647Z,22.29
2018-10-05T15:35:29.238Z,22.37
2018-10-05T15:40:32.540Z,22.35
2018-10-05T15:45:35.820Z,22.37
2018-10-05T15:50:39.088Z,22.33
2018-10-05T15:55:42.505Z,22.33
2018-10-05T16:00:46.081Z,22.33
2018-10-05T16:05:49.556Z,22.38
2018-10-05T16:10:53.843Z,22.31
2018-10-05T16:15:57.115Z,22.32
2018-10-05T16:21:00.376Z,22.32
2018-10-05T16:26:03.755Z,22.28
2018-10-05T16:31:07.129Z,22.28
2018-10-05T16:36:10.528Z,22.29
2018-10-05T16:41:13.796Z,22.26
2018-10-05T16:46:17.089Z,22.28
2018-10-05T16:51:20.429Z,22.27
2018-10-05T16:56:23.763Z,22.27
2018-10-05T17:01:28.571Z,22.24
2018-10-05T17:06:32.140Z,22.26
2018-10-05T17:11:36.680Z,22.28
2018-10-05T17:16:40.211Z,22.28
2018-10-05T17:21:43.712Z,22.30
2018-10-05T17:26:47.518Z,22.26
2018-10-05T17:31:50.850Z,22.27
2018-10-05T17:36:54.181Z,22.30
2018-10-05T17:41:57.444Z,22.29
2018-10-05T17:47:00.727Z,22.26
2018-10-05T17:52:04.914Z,22.38
2018-10-05T17:57:08.172Z,22.35
2018-10-05T18:02:11.436Z,22.32
2018-10-05T18:07:14.705Z,22.32
2018-10-05T18:12:18.156Z,22.31
2018-10-05T18:17:21.423Z,22.29
2018-10-05T18:22:24.675Z,22.34
2018-10-05T18:27:27.934Z,22.32
2018-10-05T18:32:31.191Z,22.33
2018-10-05T18:37:34.443Z,22.31
2018-10-05T18:42:37.848Z,22.32
2018-10-05T18:47:41.631Z,22.28
2018-10-05T18:52:44.936Z,22.26
2018-10-05T18:57:48.206Z,22.27
2018-10-05T19:02:51.757Z,22.26
2018-10-05T19:07:55.691Z,22.24
2018-10-05T19:12:59.621Z,22.24
2018-10-05T19:18:02.904Z,22.24
2018-10-05T19:23:06.176Z,22.22
2018-10-05T19:28:09.428Z,22.26
2018-10-05T19:33:12.724Z,22.19
2018-10-05T19:38:15.999Z,22.26
2018-10-05T19:43:19.393Z,22.19
2018-10-05T19:48:22.789Z,22.17
2018-10-05T19:53:26.092Z,22.19
2018-10-05T19:58:29.516Z,22.18
2018-10-05T20:03:32.776Z,22.17
2018-10-05T20:08:36.177Z,22.16
2018-10-05T20:13:39.442Z,22.09
2018-10-05T20:18:42.800Z,22.10
2018-10-05T20:23:46.090Z,22.10
2018-10-05T20:28:49.414Z,22.13
2018-10-05T20:33:52.678Z,22.05
2018-10-05T20:38:56.048Z,22.07
2018-10-05T20:43:59.257Z,22.03
2018-10-05T20:49:03.124Z,22.02
2018-10-05T20:54:06.412Z,22.02
2018-10-05T20:59:09.680Z,22.01
2018-10-05T21:04:13.041Z,22.02
2018-10-05T21:09:16.272Z,22.01
2018-10-05T21:14:19.532Z,22.01
2018-10-05T21:19:22.796Z,22.04
2018-10-05T21:24:26.093Z,22.02
2018-10-05T21:29:29.435Z,21.99
2018-10-05T21:34:32.724Z,22.00
2018-10-05T21:39:36.068Z,21.97
2018-10-05T21:44:39.380Z,21.99
2018-10-05T21:49:42.660Z,21.97
2018-10-05T21:54:45.962Z,21.97
2018-10-05T21:59:49.248Z,22.00
2018-10-05T22:04:52.723Z,21.98
2018-10-05T22:09:56.071Z,21.94
2018-10-05T22:14:59.526Z,21.97
2018-10-05T22:20:03.147Z,21.95
2018-10-05T22:25:06.400Z,21.95
2018-10-05T22:30:09.692Z,21.98
2018-10-05T22:35:13.060Z,21.92
2018-10-05T22:40:16.312Z,21.90
2018-10-05T22:45:19.643Z,21.95
2018-10-05T22:50:22.945Z,21.89
2018-10-05T22:55:26.240Z,21.95
2018-10-05T23:00:29.517Z,21.91
2018-10-05T23:05:32.799Z,21.91
2018-10-05T23:10:36.079Z,21.91
2018-10-05T23:15:39.353Z,21.90
2018-10-05T23:20:42.635Z,21.89
2018-10-05T23:25:45.921Z,21.94
2018-10-05T23:30:49.187Z,21.88
2018-10-05T23:35:52.484Z,21.89
2018-10-05T23:40:55.763Z,21.89
2018-10-05T23:45:59.051Z,21.91
2018-10-05T23:51:02.329Z,21.90
2018-10-05T23:56:05.695Z,21.86
